createdAt,value
2023-08-24T00:00:25.399Z,49.45
2023-08-24T00:02:52.870Z,49.33
2023-08-24T00:05:21.105Z,49.46
2023-08-24T00:07:48.572Z,49.41
2023-08-24T00:10:16.293Z,49.47
2023-08-24T00:12:43.485Z,49.58
2023-08-24T00:15:11.163Z,49.55
2023-08-24T00:17:39.747Z,49.40
2023-08-24T00:20:08.310Z,49.59
2023-08-24T00:22:35.480Z,49.41
2023-08-24T00:25:02.743Z,49.49
2023-08-24T00:27:29.926Z,49.48
2023-08-24T00:29:57.346Z,49.45
2023-08-24T00:32:24.637Z,49.48
2023-08-24T00:34:53.162Z,49.35
2023-08-24T00:37:20.334Z,49.35
2023-08-24T00:39:47.537Z,49.21
2023-08-24T00:42:14.710Z,49.31
2023-08-24T00:44:41.962Z,49.29
2023-08-24T00:47:09.586Z,49.42
2023-08-24T00:49:36.999Z,49.31
2023-08-24T00:52:05.708Z,49.65
2023-08-24T00:54:33.316Z,49.36
2023-08-24T00:57:00.708Z,49.41
2023-08-24T00:59:27.923Z,49.47
2023-08-24T01:01:57.214Z,49.40
2023-08-24T01:04:24.448Z,49.37
2023-08-24T01:06:51.612Z,49.42
2023-08-24T01:09:21.472Z,49.44
2023-08-24T01:12:10.461Z,49.37
2023-08-24T01:14:46.394Z,49.30
2023-08-24T01:17:16.598Z,49.34
2023-08-24T01:19:45.646Z,49.32
2023-08-24T01:22:30.173Z,49.39
2023-08-24T01:25:06.994Z,49.31
2023-08-24T01:27:36.796Z,49.44
2023-08-24T01:30:05.003Z,49.39
2023-08-24T01:32:32.349Z,49.25
2023-08-24T01:35:00.437Z,49.17
2023-08-24T01:37:27.855Z,49.37
2023-08-24T01:40:01.426Z,49.30
2023-08-24T01:42:32.452Z,49.25
2023-08-24T01:45:04.538Z,49.16
2023-08-24T01:47:32.826Z,49.31
2023-08-24T01:50:00.331Z,49.44
2023-08-24T01:52:28.857Z,49.43
2023-08-24T01:54:56.387Z,49.39
2023-08-24T01:57:23.577Z,49.37
2023-08-24T01:59:50.825Z,49.36
2023-08-24T02:02:19.392Z,49.33
2023-08-24T02:04:46.623Z,49.22
2023-08-24T02:07:14.968Z,49.20
2023-08-24T02:09:42.321Z,49.29
2023-08-24T02:12:09.579Z,49.15
2023-08-24T02:14:36.762Z,49.33
2023-08-24T02:17:03.964Z,49.24
2023-08-24T02:19:32.556Z,49.22
2023-08-24T02:21:59.761Z,49.35
2023-08-24T02:24:27.001Z,49.19
2023-08-24T02:26:54.206Z,49.30
2023-08-24T02:29:21.415Z,49.25
2023-08-24T02:31:50.535Z,49.19
2023-08-24T02:34:17.855Z,49.37
2023-08-24T02:36:46.583Z,49.55
2023-08-24T02:39:13.942Z,49.33
2023-08-24T02:41:41.095Z,49.39
2023-08-24T02:44:08.285Z,49.47
2023-08-24T02:46:35.808Z,49.46
2023-08-24T02:49:02.985Z,49.38
2023-08-24T02:51:30.301Z,49.24
2023-08-24T02:53:58.818Z,49.34
2023-08-24T02:56:26.032Z,49.42
2023-08-24T02:58:53.207Z,49.27
2023-08-24T03:01:20.418Z,49.15
2023-08-24T03:03:47.655Z,49.44
2023-08-24T03:06:14.864Z,49.28
2023-08-24T03:08:42.018Z,49.17
2023-08-24T03:11:10.568Z,49.07
2023-08-24T03:13:39.010Z,49.14
2023-08-24T03:16:07.330Z,49.18
2023-08-24T03:18:34.546Z,49.14
2023-08-24T03:21:02.138Z,49.18
2023-08-24T03:23:29.345Z,49.32
2023-08-24T03:25:56.866Z,48.99
2023-08-24T03:28:25.483Z,49.41
2023-08-24T03:30:53.924Z,49.39
2023-08-24T03:33:21.192Z,49.48
2023-08-24T03:35:48.602Z,49.38
2023-08-24T03:38:15.798Z,49.22
2023-08-24T03:40:42.987Z,49.23
2023-08-24T03:43:10.167Z,49.19
2023-08-24T03:45:38.845Z,49.34
2023-08-24T03:48:07.140Z,49.11
2023-08-24T03:50:34.421Z,49.19
2023-08-24T03:53:01.601Z,49.20
2023-08-24T03:55:28.763Z,48.97
2023-08-24T03:57:55.964Z,49.10
2023-08-24T04:00:23.361Z,49.09
2023-08-24T04:02:51.991Z,49.06
2023-08-24T04:05:19.468Z,49.13
2023-08-24T04:07:46.623Z,49.14
2023-08-24T04:10:13.780Z,49.19
2023-08-24T04:12:51.147Z,49.18
2023-08-24T04:15:18.403Z,49.10
2023-08-24T04:17:45.649Z,49.39
2023-08-24T04:20:13.302Z,49.28
2023-08-24T04:22:40.608Z,49.28
2023-08-24T04:25:08.149Z,49.25
2023-08-24T04:27:35.400Z,49.25
2023-08-24T04:30:04.565Z,49.23
2023-08-24T04:32:32.890Z,49.29
2023-08-24T04:35:00.123Z,49.25
2023-08-24T04:37:27.327Z,49.16
2023-08-24T04:39:54.520Z,49.11
2023-08-24T04:42:21.689Z,49.07
2023-08-24T04:44:48.855Z,49.10
2023-08-24T04:47:17.364Z,49.09
2023-08-24T04:49:44.548Z,49.01
2023-08-24T04:52:11.712Z,49.11
2023-08-24T04:54:38.882Z,49.05
2023-08-24T04:57:06.319Z,48.90
2023-08-24T04:59:33.469Z,49.06
2023-08-24T05:02:00.645Z,49.17
2023-08-24T05:04:29.231Z,49.24
2023-08-24T05:06:56.363Z,49.31
2023-08-24T05:09:23.617Z,49.20
2023-08-24T05:11:50.836Z,49.23
2023-08-24T05:14:18.004Z,49.18
2023-08-24T05:16:45.215Z,49.04
2023-08-24T05:19:12.409Z,49.11
2023-08-24T05:21:40.910Z,49.33
2023-08-24T05:24:08.092Z,49.15
2023-08-24T05:26:35.332Z,48.83
2023-08-24T05:29:02.499Z,49.03
2023-08-24T05:31:29.712Z,49.13
2023-08-24T05:33:56.889Z,49.05
2023-08-24T05:36:24.159Z,49.06
2023-08-24T05:39:04.789Z,49.08
2023-08-24T05:41:33.206Z,49.03
2023-08-24T05:44:00.395Z,49.09
2023-08-24T05:46:27.683Z,49.02
2023-08-24T05:48:54.910Z,49.05
2023-08-24T05:51:22.056Z,49.12
2023-08-24T05:53:49.195Z,49.28
2023-08-24T05:56:17.751Z,49.25
2023-08-24T05:58:44.976Z,49.20
2023-08-24T06:01:12.178Z,48.99
2023-08-24T06:03:39.400Z,49.68
2023-08-24T06:06:06.777Z,50.63
2023-08-24T06:08:34.067Z,49.86
2023-08-24T06:11:01.314Z,49.19
2023-08-24T06:13:29.824Z,48.89
2023-08-24T06:15:56.983Z,48.79
2023-08-24T06:18:24.180Z,48.70
2023-08-24T06:20:51.410Z,48.55
2023-08-24T06:23:18.618Z,48.48
2023-08-24T06:25:46.155Z,48.41
2023-08-24T06:28:13.493Z,48.49
2023-08-24T06:30:42.815Z,48.51
2023-08-24T06:33:10.608Z,48.46
2023-08-24T06:35:38.123Z,48.78
2023-08-24T06:38:05.550Z,48.70
2023-08-24T06:40:32.727Z,48.86
2023-08-24T06:42:59.903Z,48.83
2023-08-24T06:45:27.069Z,48.93
2023-08-24T06:47:55.669Z,48.85
2023-08-24T06:50:22.908Z,48.83
2023-08-24T06:52:50.145Z,48.90
2023-08-24T06:55:17.505Z,48.91
2023-08-24T06:57:49.986Z,49.00
2023-08-24T07:00:18.264Z,48.85
2023-08-24T07:02:45.411Z,48.84
2023-08-24T07:05:14.190Z,48.68
2023-08-24T07:07:41.411Z,48.81
2023-08-24T07:10:09.319Z,48.65
2023-08-24T07:12:36.549Z,48.69
2023-08-24T07:15:04.302Z,48.74
2023-08-24T07:17:31.565Z,48.76
2023-08-24T07:19:58.907Z,48.66
2023-08-24T07:22:27.442Z,48.79
2023-08-24T07:24:54.813Z,48.72
2023-08-24T07:27:22.008Z,48.88
2023-08-24T07:29:49.164Z,49.05
2023-08-24T07:32:16.717Z,49.17
2023-08-24T07:34:43.929Z,48.94
2023-08-24T07:37:11.331Z,49.01
2023-08-24T07:39:40.289Z,49.06
2023-08-24T07:42:07.497Z,48.95
2023-08-24T07:44:34.720Z,49.00
2023-08-24T07:47:01.861Z,48.89
2023-08-24T07:49:29.078Z,48.78
2023-08-24T07:51:56.244Z,48.88
2023-08-24T07:54:23.400Z,48.92
2023-08-24T07:56:52.057Z,48.83
2023-08-24T07:59:19.240Z,48.78
2023-08-24T08:01:46.411Z,48.92
2023-08-24T08:04:13.596Z,48.89
2023-08-24T08:06:40.757Z,48.78
2023-08-24T08:09:07.895Z,48.86
2023-08-24T08:11:35.071Z,48.96
2023-08-24T08:14:03.657Z,48.94
2023-08-24T08:16:30.830Z,49.04
2023-08-24T08:18:57.982Z,49.00
2023-08-24T08:21:25.193Z,49.16
2023-08-24T08:23:52.345Z,49.10
2023-08-24T08:26:19.494Z,49.16
2023-08-24T08:28:46.659Z,48.96
2023-08-24T08:31:15.268Z,49.03
2023-08-24T08:33:42.562Z,48.99
2023-08-24T08:36:09.748Z,49.13
2023-08-24T08:38:36.914Z,49.01
2023-08-24T08:41:05.460Z,49.03
2023-08-24T08:43:32.991Z,48.94
2023-08-24T08:46:01.497Z,48.96
2023-08-24T08:48:32.357Z,48.94
2023-08-24T08:50:59.647Z,48.97
2023-08-24T08:53:26.826Z,49.00
2023-08-24T08:55:56.616Z,49.17
2023-08-24T08:58:24.395Z,49.10
2023-08-24T09:00:52.664Z,49.22
2023-08-24T09:03:20.862Z,49.16
2023-08-24T09:05:49.758Z,49.23
2023-08-24T09:08:17.856Z,49.20
2023-08-24T09:10:45.655Z,49.06
2023-08-24T09:13:12.872Z,49.20
2023-08-24T09:15:40.192Z,49.12
2023-08-24T09:18:07.836Z,49.07
2023-08-24T09:20:35.531Z,49.01
2023-08-24T09:23:04.537Z,49.14
2023-08-24T09:25:31.887Z,49.03
2023-08-24T09:27:59.645Z,49.07
2023-08-24T09:30:31.013Z,49.13
2023-08-24T09:33:02.576Z,49.06
2023-08-24T09:35:29.862Z,49.05
2023-08-24T09:37:57.006Z,48.99
2023-08-24T09:40:28.724Z,49.03
2023-08-24T09:42:55.869Z,49.12
2023-08-24T09:45:23.062Z,48.96
2023-08-24T09:47:52.106Z,49.01
2023-08-24T09:50:19.731Z,49.05
2023-08-24T09:52:48.335Z,49.07
2023-08-24T09:55:21.207Z,49.43
2023-08-24T09:57:53.825Z,49.38
2023-08-24T10:00:21.209Z,49.37
2023-08-24T10:02:51.647Z,49.27
2023-08-24T10:05:34.363Z,49.31
2023-08-24T10:08:10.117Z,49.15
2023-08-24T10:10:40.698Z,49.15
2023-08-24T10:13:15.347Z,49.07
2023-08-24T10:15:43.223Z,48.93
2023-08-24T10:18:11.101Z,49.06
2023-08-24T10:20:38.329Z,49.04
2023-08-24T10:23:05.691Z,49.06
2023-08-24T10:25:33.234Z,48.95
2023-08-24T10:28:02.838Z,49.06
2023-08-24T10:30:31.777Z,48.99
2023-08-24T10:32:59.762Z,48.99
2023-08-24T10:35:27.617Z,49.05
2023-08-24T10:37:54.840Z,49.07
2023-08-24T10:40:32.559Z,49.04
2023-08-24T10:43:03.723Z,49.17
2023-08-24T10:45:55.341Z,49.27
2023-08-24T10:48:23.677Z,49.20
2023-08-24T10:51:23.643Z,49.25
2023-08-24T10:53:54.036Z,49.21
2023-08-24T10:56:21.896Z,49.15
2023-08-24T10:59:13.571Z,49.20
2023-08-24T11:01:42.851Z,49.20
2023-08-24T11:04:12.598Z,49.37
2023-08-24T11:06:53.016Z,49.02
2023-08-24T11:09:20.491Z,49.09
2023-08-24T11:12:05.991Z,49.02
2023-08-24T11:14:49.896Z,49.08
2023-08-24T11:17:21.751Z,49.10
2023-08-24T11:19:50.705Z,49.14
2023-08-24T11:22:18.227Z,49.18
2023-08-24T11:24:46.107Z,49.39
2023-08-24T11:27:13.285Z,49.07
2023-08-24T11:29:40.484Z,49.21
2023-08-24T11:32:07.715Z,49.42
2023-08-24T11:34:36.314Z,49.24
2023-08-24T11:37:03.545Z,49.28
2023-08-24T11:39:30.719Z,49.13
2023-08-24T11:41:59.001Z,49.19
2023-08-24T11:44:29.524Z,49.11
2023-08-24T11:46:58.206Z,49.21
2023-08-24T11:49:25.651Z,49.10
2023-08-24T11:51:54.238Z,49.12
2023-08-24T11:54:21.796Z,49.03
2023-08-24T11:56:48.965Z,48.94
2023-08-24T11:59:17.427Z,48.67
2023-08-24T12:01:46.683Z,49.00
2023-08-24T12:04:13.933Z,48.94
2023-08-24T12:06:41.126Z,49.10
2023-08-24T12:09:09.642Z,49.03
2023-08-24T12:11:37.964Z,49.06
2023-08-24T12:14:05.602Z,49.07
2023-08-24T12:16:34.258Z,49.03
2023-08-24T12:19:02.127Z,49.09
2023-08-24T12:21:29.845Z,49.16
2023-08-24T12:23:57.867Z,49.07
2023-08-24T12:26:26.816Z,49.12
2023-08-24T12:28:54.429Z,48.91
2023-08-24T12:31:21.969Z,48.99
2023-08-24T12:34:00.430Z,48.94
2023-08-24T12:36:27.735Z,48.91
2023-08-24T12:38:54.889Z,48.93
2023-08-24T12:41:22.892Z,48.78
2023-08-24T12:43:51.557Z,48.75
2023-08-24T12:46:18.805Z,48.82
2023-08-24T12:48:46.002Z,48.84
2023-08-24T12:51:13.459Z,49.07
2023-08-24T12:53:40.645Z,48.95
2023-08-24T12:56:07.840Z,48.87
2023-08-24T12:58:35.303Z,48.80
2023-08-24T13:01:03.821Z,48.96
2023-08-24T13:03:31.057Z,48.85
2023-08-24T13:06:06.089Z,48.92
2023-08-24T13:08:36.716Z,49.03
2023-08-24T13:11:03.891Z,49.01
2023-08-24T13:13:31.052Z,49.02
2023-08-24T13:16:00.145Z,49.06
2023-08-24T13:18:28.935Z,48.98
2023-08-24T13:20:56.111Z,49.09
2023-08-24T13:23:23.279Z,49.00
2023-08-24T13:25:50.824Z,48.90
2023-08-24T13:28:18.069Z,48.95
2023-08-24T13:30:45.258Z,49.00
2023-08-24T13:33:12.522Z,48.73
2023-08-24T13:35:41.069Z,48.80
2023-08-24T13:38:08.240Z,48.77
2023-08-24T13:40:35.411Z,48.71
2023-08-24T13:43:02.584Z,48.97
2023-08-24T13:45:29.796Z,48.88
2023-08-24T13:47:57.009Z,48.91
2023-08-24T13:50:24.304Z,49.06
2023-08-24T13:52:53.115Z,49.06
2023-08-24T13:55:20.537Z,49.09
2023-08-24T13:57:47.689Z,49.14
2023-08-24T14:00:16.010Z,49.08
2023-08-24T14:02:43.258Z,49.17
2023-08-24T14:05:10.833Z,48.95
2023-08-24T14:07:38.116Z,48.98
2023-08-24T14:10:07.896Z,49.03
2023-08-24T14:12:35.171Z,49.20
2023-08-24T14:15:02.488Z,49.04
2023-08-24T14:17:29.745Z,48.88
2023-08-24T14:19:57.299Z,48.67
2023-08-24T14:22:24.438Z,48.73
2023-08-24T14:24:51.784Z,48.67
2023-08-24T14:27:20.319Z,48.60
2023-08-24T14:29:47.453Z,48.74
2023-08-24T14:32:14.684Z,48.76
2023-08-24T14:34:41.829Z,48.74
2023-08-24T14:37:08.974Z,48.82
2023-08-24T14:39:36.163Z,48.84
2023-08-24T14:42:03.380Z,48.88
2023-08-24T14:44:31.933Z,48.96
2023-08-24T14:46:59.197Z,49.10
2023-08-24T14:49:26.397Z,49.15
2023-08-24T14:51:53.566Z,49.16
2023-08-24T14:54:21.253Z,49.19
2023-08-24T14:56:48.421Z,49.17
2023-08-24T14:59:15.610Z,49.05
2023-08-24T15:01:44.119Z,49.20
2023-08-24T15:04:11.265Z,49.14
2023-08-24T15:06:38.455Z,49.07
2023-08-24T15:09:05.767Z,48.79
2023-08-24T15:11:32.891Z,48.87
2023-08-24T15:14:00.007Z,48.78
2023-08-24T15:16:27.165Z,48.88
2023-08-24T15:18:55.685Z,48.82
2023-08-24T15:21:23.013Z,48.83
2023-08-24T15:23:50.183Z,48.83
2023-08-24T15:26:17.366Z,48.85
2023-08-24T15:29:10.272Z,48.74
2023-08-24T15:31:37.796Z,48.82
2023-08-24T15:34:06.430Z,49.13
2023-08-24T15:36:34.104Z,48.96
2023-08-24T15:39:01.270Z,49.03
2023-08-24T15:41:28.400Z,49.04
2023-08-24T15:43:55.539Z,49.04
2023-08-24T15:46:22.730Z,49.02
2023-08-24T15:48:49.851Z,48.98
2023-08-24T15:51:18.430Z,48.77
2023-08-24T15:53:45.564Z,49.00
2023-08-24T15:56:12.710Z,49.13
2023-08-24T15:58:39.874Z,48.91
2023-08-24T16:01:07.082Z,48.88
2023-08-24T16:03:34.244Z,48.76
2023-08-24T16:06:01.413Z,48.99
2023-08-24T16:08:29.901Z,48.91
2023-08-24T16:10:57.703Z,48.98
2023-08-24T16:13:26.169Z,48.96
2023-08-24T16:15:53.592Z,48.83
2023-08-24T16:18:23.512Z,48.96
2023-08-24T16:20:50.822Z,49.02
2023-08-24T16:23:18.135Z,48.99
2023-08-24T16:25:46.765Z,49.16
2023-08-24T16:28:14.498Z,49.08
2023-08-24T16:30:41.819Z,49.10
2023-08-24T16:33:09.093Z,49.04
2023-08-24T16:35:36.342Z,49.16
2023-08-24T16:38:03.757Z,49.06
2023-08-24T16:40:34.243Z,49.45
2023-08-24T16:43:03.417Z,49.58
2023-08-24T16:45:30.705Z,49.81
2023-08-24T16:47:57.886Z,49.90
2023-08-24T16:50:25.066Z,49.44
2023-08-24T16:52:52.200Z,49.35
2023-08-24T16:55:20.038Z,49.43
2023-08-24T16:57:47.321Z,49.29
2023-08-24T17:00:16.666Z,49.29
2023-08-24T17:02:44.046Z,49.22
2023-08-24T17:05:11.317Z,49.35
2023-08-24T17:07:40.250Z,49.11
2023-08-24T17:10:08.806Z,49.16
2023-08-24T17:12:36.014Z,49.25
2023-08-24T17:15:03.455Z,49.47
2023-08-24T17:17:31.959Z,49.40
2023-08-24T17:19:59.299Z,49.43
2023-08-24T17:22:26.449Z,49.55
2023-08-24T17:24:53.611Z,49.35
2023-08-24T17:27:20.751Z,49.33
2023-08-24T17:29:47.901Z,49.39
2023-08-24T17:32:15.046Z,49.41
2023-08-24T17:34:43.555Z,49.38
2023-08-24T17:37:10.701Z,49.28
2023-08-24T17:39:37.881Z,49.34
2023-08-24T17:42:05.395Z,49.25
2023-08-24T17:44:32.532Z,49.32
2023-08-24T17:46:59.666Z,49.32
2023-08-24T17:49:26.850Z,49.31
2023-08-24T17:51:55.466Z,49.48
2023-08-24T17:54:22.620Z,49.43
2023-08-24T17:56:49.770Z,49.38
2023-08-24T17:59:16.919Z,49.52
2023-08-24T18:01:44.099Z,49.52
2023-08-24T18:04:12.124Z,49.61
2023-08-24T18:06:39.299Z,49.70
2023-08-24T18:09:07.825Z,49.69
2023-08-24T18:11:35.344Z,49.52
2023-08-24T18:14:02.568Z,49.55
2023-08-24T18:16:29.805Z,49.62
2023-08-24T18:18:57.111Z,49.58
2023-08-24T18:21:24.268Z,49.41
2023-08-24T18:23:51.406Z,49.61
2023-08-24T18:26:20.101Z,49.51
2023-08-24T18:28:47.251Z,49.45
2023-08-24T18:31:14.507Z,49.43
2023-08-24T18:33:41.772Z,49.52
2023-08-24T18:36:09.025Z,49.41
2023-08-24T18:38:36.184Z,49.48
2023-08-24T18:41:03.374Z,49.56
2023-08-24T18:43:31.902Z,49.50
2023-08-24T18:46:01.080Z,49.66
2023-08-24T18:48:28.248Z,49.51
2023-08-24T18:50:55.404Z,49.49
2023-08-24T18:53:22.557Z,49.56
2023-08-24T18:55:53.236Z,49.63
2023-08-24T18:58:20.424Z,49.59
2023-08-24T19:00:49.202Z,49.70
2023-08-24T19:03:16.456Z,49.69
2023-08-24T19:05:43.597Z,49.71
2023-08-24T19:08:11.960Z,49.71
2023-08-24T19:10:39.281Z,49.65
2023-08-24T19:13:06.407Z,49.64
2023-08-24T19:15:33.534Z,49.58
2023-08-24T19:18:02.116Z,49.47
2023-08-24T19:20:29.271Z,49.48
2023-08-24T19:22:56.405Z,49.50
2023-08-24T19:25:23.576Z,49.55
2023-08-24T19:27:51.134Z,49.42
2023-08-24T19:30:18.669Z,49.61
2023-08-24T19:32:46.036Z,49.61
2023-08-24T19:35:14.570Z,49.58
2023-08-24T19:37:41.697Z,49.50
2023-08-24T19:40:10.136Z,49.49
2023-08-24T19:42:37.264Z,49.65
2023-08-24T19:45:05.063Z,49.76
2023-08-24T19:47:32.271Z,49.61
2023-08-24T19:49:59.417Z,49.62
2023-08-24T19:52:27.912Z,49.77
2023-08-24T19:54:55.076Z,49.75
2023-08-24T19:57:22.231Z,49.65
2023-08-24T19:59:49.362Z,49.68
2023-08-24T20:02:16.936Z,49.78
2023-08-24T20:04:44.074Z,49.55
2023-08-24T20:07:11.214Z,49.57
2023-08-24T20:09:39.726Z,49.53
2023-08-24T20:12:07.593Z,49.57
2023-08-24T20:14:34.763Z,49.53
2023-08-24T20:17:02.073Z,49.50
2023-08-24T20:19:29.190Z,49.56
2023-08-24T20:21:56.360Z,49.42
2023-08-24T20:24:23.572Z,49.67
2023-08-24T20:26:52.054Z,49.62
2023-08-24T20:29:19.187Z,49.56
2023-08-24T20:31:46.353Z,49.69
2023-08-24T20:34:13.472Z,49.77
2023-08-24T20:36:40.607Z,49.93
2023-08-24T20:39:07.940Z,50.00
2023-08-24T20:41:35.066Z,49.81
2023-08-24T20:44:03.714Z,49.71
2023-08-24T20:46:30.910Z,49.63
2023-08-24T20:48:58.047Z,49.87
2023-08-24T20:51:25.257Z,49.68
2023-08-24T20:53:52.571Z,49.56
2023-08-24T20:56:19.759Z,49.62
2023-08-24T20:58:46.949Z,49.51
2023-08-24T21:01:15.478Z,49.62
2023-08-24T21:03:42.766Z,49.63
2023-08-24T21:06:09.957Z,49.59
2023-08-24T21:08:37.316Z,49.55
2023-08-24T21:11:04.449Z,49.52
2023-08-24T21:13:31.588Z,49.53
2023-08-24T21:15:59.652Z,49.50
2023-08-24T21:18:28.192Z,49.47
2023-08-24T21:20:57.577Z,49.63
2023-08-24T21:23:24.800Z,49.80
2023-08-24T21:25:51.935Z,49.81
2023-08-24T21:28:19.067Z,49.77
2023-08-24T21:30:46.320Z,49.86
2023-08-24T21:33:13.543Z,49.91
2023-08-24T21:35:42.067Z,49.88
2023-08-24T21:38:09.335Z,49.80
2023-08-24T21:40:39.999Z,49.87
2023-08-24T21:43:07.201Z,49.85
2023-08-24T21:45:34.390Z,49.72
2023-08-24T21:48:01.586Z,49.74
2023-08-24T21:50:28.913Z,49.72
2023-08-24T21:52:57.452Z,49.73
2023-08-24T21:55:24.577Z,49.69
2023-08-24T21:57:51.911Z,49.72
2023-08-24T22:00:19.509Z,49.75
2023-08-24T22:02:46.735Z,49.73
2023-08-24T22:05:14.070Z,49.79
2023-08-24T22:07:41.206Z,49.72
2023-08-24T22:10:10.333Z,49.80
2023-08-24T22:12:37.462Z,49.85
2023-08-24T22:15:05.563Z,49.97
2023-08-24T22:17:32.817Z,49.83
2023-08-24T22:20:00.096Z,49.97
2023-08-24T22:22:27.251Z,49.91
2023-08-24T22:24:54.380Z,49.87
2023-08-24T22:27:22.930Z,49.88
2023-08-24T22:29:50.073Z,49.84
2023-08-24T22:32:17.241Z,49.75
2023-08-24T22:34:44.375Z,49.81
2023-08-24T22:37:11.541Z,49.72
2023-08-24T22:39:38.722Z,49.76
2023-08-24T22:42:06.586Z,49.66
2023-08-24T22:44:35.104Z,49.73
2023-08-24T22:47:02.237Z,49.73
2023-08-24T22:49:29.383Z,49.74
2023-08-24T22:51:56.707Z,49.85
2023-08-24T22:54:23.854Z,49.77
2023-08-24T22:56:51.156Z,49.81
2023-08-24T22:59:18.426Z,49.83
2023-08-24T23:01:46.945Z,50.05
2023-08-24T23:04:14.118Z,49.99
2023-08-24T23:06:46.986Z,49.84
2023-08-24T23:09:14.471Z,49.96
2023-08-24T23:11:42.205Z,49.83
2023-08-24T23:14:09.751Z,49.80
2023-08-24T23:16:36.896Z,49.89
2023-08-24T23:19:05.413Z,50.01
2023-08-24T23:21:32.664Z,49.90
2023-08-24T23:24:07.009Z,49.80
2023-08-24T23:26:44.404Z,49.69
2023-08-24T23:29:11.609Z,49.90
2023-08-24T23:31:38.854Z,49.81
2023-08-24T23:34:07.370Z,49.74
2023-08-24T23:36:34.495Z,49.83
2023-08-24T23:39:01.621Z,49.83
2023-08-24T23:41:29.222Z,49.89
2023-08-24T23:43:56.387Z,49.85
2023-08-24T23:46:23.563Z,49.89
2023-08-24T23:48:50.783Z,50.06
2023-08-24T23:51:19.274Z,50.13
2023-08-24T23:53:48.063Z,50.12
2023-08-24T23:56:15.891Z,50.17
2023-08-24T23:58:43.004Z,50.01
